Time;durP1;ratioP1;P1;durP2;ratioP2;P2;SDS_P1;SDS_P2;PMS_P1;PMS_P2;Temp;Humidity;BMP_temperature;BMP_pressure;BME280_temperature;BME280_humidity;BME280_pressure;Samples;Min_cycle;Max_cycle;Signal;HPM_P1;HPM_P2
2022/10/02 00:00:34;;;;;;;6.90;3.00;;;;;;;14.55;100.00;98430.44;4173321;28;21233;-82
2022/10/02 00:02:41;;;;;;;8.70;3.30;;;;;;;14.53;100.00;98422.66;4174362;28;20687;-82
2022/10/02 00:04:49;;;;;;;9.97;3.00;;;;;;;14.51;100.00;98427.22;4177608;28;20653;-83
2022/10/02 00:06:53;;;;;;;5.50;2.60;;;;;;;14.52;100.00;98422.78;4194872;28;20638;-82
2022/10/02 00:08:59;;;;;;;9.03;3.10;;;;;;;14.54;100.00;98418.25;4194772;28;20645;-82
2022/10/02 00:11:07;;;;;;;5.70;2.70;;;;;;;14.54;100.00;98426.13;4192461;28;20693;-83
2022/10/02 00:13:15;;;;;;;4.80;2.70;;;;;;;14.51;100.00;98424.59;4187522;28;20657;-82
2022/10/02 00:15:22;;;;;;;4.50;2.77;;;;;;;14.52;100.00;98421.00;4174685;28;20673;-83
2022/10/02 00:17:28;;;;;;;5.47;2.50;;;;;;;14.52;100.00;98415.75;4208951;28;20735;-83
2022/10/02 00:19:31;;;;;;;5.00;2.60;;;;;;;14.52;100.00;98425.41;4178686;28;20619;-83
2022/10/02 00:21:46;;;;;;;8.20;2.97;;;;;;;14.51;100.00;98429.84;4192625;28;20660;-83
2022/10/02 00:23:52;;;;;;;4.43;2.30;;;;;;;14.54;100.00;98439.25;4192889;28;20613;-83
2022/10/02 00:26:00;;;;;;;8.83;3.53;;;;;;;14.55;100.00;98440.94;4192712;28;20656;-82
2022/10/02 00:28:12;;;;;;;6.80;2.90;;;;;;;14.55;100.00;98454.88;4191492;28;20622;-83
2022/10/02 00:30:17;;;;;;;4.93;2.53;;;;;;;14.58;100.00;98462.50;4200807;28;20617;-83
2022/10/02 00:32:26;;;;;;;9.40;2.77;;;;;;;14.60;100.00;98469.31;4197183;28;20694;-82
2022/10/02 00:34:34;;;;;;;6.93;3.03;;;;;;;14.60;100.00;98468.50;4193476;28;20719;-83
2022/10/02 00:36:43;;;;;;;10.60;3.03;;;;;;;14.60;100.00;98471.94;4190499;28;21135;-83
2022/10/02 00:38:56;;;;;;;5.70;2.80;;;;;;;14.60;100.00;98466.69;4187044;28;20625;-83
2022/10/02 00:41:32;;;;;;;10.33;3.23;;;;;;;14.59;100.00;98462.41;4188383;28;20665;-83
2022/10/02 00:43:37;;;;;;;5.73;2.50;;;;;;;14.59;100.00;98453.69;4190519;28;20675;-83
2022/10/02 00:46:05;;;;;;;7.53;2.97;;;;;;;14.60;100.00;98448.31;4192837;28;20728;-82
2022/10/02 00:48:20;;;;;;;4.93;2.57;;;;;;;14.59;100.00;98446.66;4195781;28;20634;-83
2022/10/02 00:50:32;;;;;;;5.13;2.70;;;;;;;14.58;100.00;98466.94;4168379;28;21000;-83
2022/10/02 00:52:47;;;;;;;6.20;3.50;;;;;;;14.49;100.00;98468.47;4192470;28;20661;-83
2022/10/02 00:55:26;;;;;;;20.40;4.67;;;;;;;14.41;100.00;98456.94;4172468;28;20653;-82
2022/10/02 00:57:40;;;;;;;9.27;3.17;;;;;;;14.38;100.00;98460.63;4168326;28;20638;-83
2022/10/02 00:59:52;;;;;;;6.03;3.00;;;;;;;14.40;100.00;98448.22;4194632;28;20653;-83
2022/10/02 01:01:58;;;;;;;9.80;3.20;;;;;;;14.41;100.00;98449.06;4176462;28;20680;-83
2022/10/02 01:04:05;;;;;;;6.40;2.50;;;;;;;14.41;100.00;98462.19;4192106;28;20665;-83
2022/10/02 01:06:09;;;;;;;9.00;3.30;;;;;;;14.43;100.00;98465.50;4194529;28;20676;-83
2022/10/02 01:08:13;;;;;;;10.60;3.20;;;;;;;14.43;100.00;98470.75;4194224;28;20631;-83
2022/10/02 01:10:17;;;;;;;8.67;3.83;;;;;;;14.43;100.00;98471.59;4189864;28;21023;-83
2022/10/02 01:12:20;;;;;;;8.43;3.30;;;;;;;14.43;100.00;98470.75;4171660;28;21152;-83
2022/10/02 01:14:32;;;;;;;8.10;3.50;;;;;;;14.43;100.00;98460.25;4193881;28;20724;-83
2022/10/02 01:16:35;;;;;;;8.07;4.50;;;;;;;14.44;100.00;98467.19;4193910;28;20636;-83
2022/10/02 01:18:39;;;;;;;8.60;2.93;;;;;;;14.42;100.00;98482.22;4180907;28;20645;-82
2022/10/02 01:20:45;;;;;;;5.63;2.83;;;;;;;14.42;100.00;98483.06;4168862;28;20697;-83
2022/10/02 01:22:53;;;;;;;8.80;3.10;;;;;;;14.41;100.00;98459.56;4172992;28;21050;-83
2022/10/02 01:25:00;;;;;;;5.93;2.70;;;;;;;14.33;100.00;98470.63;4176134;28;20634;-83
2022/10/02 01:27:03;;;;;;;6.23;2.70;;;;;;;14.29;100.00;98455.25;4194603;28;20682;-83
2022/10/02 01:29:07;;;;;;;6.33;3.30;;;;;;;14.26;100.00;98440.56;4192139;28;20656;-83
2022/10/02 01:31:13;;;;;;;7.40;2.70;;;;;;;14.26;100.00;98455.47;4189478;28;20736;-83
2022/10/02 01:33:17;;;;;;;8.20;2.83;;;;;;;14.28;100.00;98469.31;4196154;28;20624;-83
2022/10/02 01:35:22;;;;;;;6.30;3.03;;;;;;;14.31;100.00;98467.31;4192335;28;20632;-82
2022/10/02 01:37:28;;;;;;;5.83;3.03;;;;;;;14.31;100.00;98466.44;4194444;28;21047;-83
2022/10/02 01:39:32;;;;;;;6.30;2.90;;;;;;;14.33;100.00;98461.94;4191885;28;20636;-83
2022/10/02 01:41:41;;;;;;;6.67;2.67;;;;;;;14.35;100.00;98462.66;4188187;28;20622;-83
2022/10/02 01:43:48;;;;;;;7.07;3.33;;;;;;;14.36;100.00;98472.19;4191517;28;20646;-83
2022/10/02 01:45:57;;;;;;;7.37;2.70;;;;;;;14.35;100.00;98471.34;4193237;28;21006;-82
2022/10/02 01:48:05;;;;;;;6.20;2.90;;;;;;;14.37;100.00;98471.22;4194469;28;20641;-83
2022/10/02 01:50:13;;;;;;;6.87;3.17;;;;;;;14.40;100.00;98473.63;4194157;28;20627;-83
2022/10/02 01:52:29;;;;;;;9.17;3.00;;;;;;;14.33;100.00;98469.81;4192797;28;20658;-83
2022/10/02 01:54:41;;;;;;;9.37;3.20;;;;;;;14.28;100.00;98480.66;4190638;28;20676;-83
2022/10/02 01:56:54;;;;;;;6.80;2.87;;;;;;;14.31;100.00;98482.19;4189784;28;21278;-82
2022/10/02 01:59:04;;;;;;;11.03;3.30;;;;;;;14.32;100.00;98482.06;4195095;28;20644;-82
2022/10/02 02:01:15;;;;;;;6.40;2.90;;;;;;;14.33;100.00;98485.56;4174379;28;20623;-83
2022/10/02 02:03:22;;;;;;;7.53;3.10;;;;;;;14.33;100.00;98486.38;4186032;28;20638;-83
2022/10/02 02:05:33;;;;;;;8.97;3.07;;;;;;;14.35;100.00;98479.22;4192521;28;20781;-83
2022/10/02 02:07:45;;;;;;;6.87;2.63;;;;;;;14.35;100.00;98481.03;4175587;28;20670;-83
2022/10/02 02:09:55;;;;;;;7.50;2.80;;;;;;;14.36;100.00;98477.44;4189314;28;21207;-83
2022/10/02 02:12:03;;;;;;;7.50;3.00;;;;;;;14.37;100.00;98473.84;4191004;28;20780;-83
2022/10/02 02:14:09;;;;;;;5.20;2.70;;;;;;;14.38;100.00;98486.03;4192356;28;20625;-83
2022/10/02 02:16:20;;;;;;;5.80;2.53;;;;;;;14.39;100.00;98483.28;4191713;28;20682;-83
2022/10/02 02:18:29;;;;;;;10.93;3.20;;;;;;;14.41;100.00;98480.53;4192613;28;20637;-83
2022/10/02 02:20:36;;;;;;;8.13;2.83;;;;;;;14.40;100.00;98484.97;4184822;28;20631;-82
2022/10/02 02:22:43;;;;;;;9.40;3.13;;;;;;;14.37;100.00;98474.72;4192403;28;20648;-83
2022/10/02 02:24:52;;;;;;;11.60;3.03;;;;;;;14.37;100.00;98485.22;4187758;28;20633;-83
2022/10/02 02:27:00;;;;;;;6.77;2.80;;;;;;;14.40;100.00;98476.25;4190695;28;21268;-83
2022/10/02 02:29:06;;;;;;;4.40;2.70;;;;;;;14.38;100.00;98471.09;4176510;28;20726;-83
2022/10/02 02:31:13;;;;;;;4.67;2.30;;;;;;;14.38;100.00;98475.53;4187841;28;20634;-82
2022/10/02 02:33:19;;;;;;;9.80;3.17;;;;;;;14.36;100.00;98480.91;4192160;28;21124;-83
2022/10/02 02:35:27;;;;;;;8.40;3.43;;;;;;;14.36;100.00;98473.03;4175159;28;20622;-83
2022/10/02 02:37:34;;;;;;;6.67;2.67;;;;;;;14.36;100.00;98467.78;4196496;28;20688;-82
2022/10/02 02:39:41;;;;;;;6.73;3.23;;;;;;;14.36;100.00;98470.41;4180293;28;20748;-83
2022/10/02 02:41:48;;;;;;;6.27;2.90;;;;;;;14.37;100.00;98469.47;4188198;28;20636;-83
2022/10/02 02:43:58;;;;;;;9.00;3.40;;;;;;;14.36;100.00;98472.19;4189801;28;20629;-82
2022/10/02 02:46:06;;;;;;;9.50;3.07;;;;;;;14.35;100.00;98466.09;4172120;28;20685;-82
2022/10/02 02:48:14;;;;;;;8.90;3.70;;;;;;;14.32;100.00;98466.34;4190305;28;20636;-84
2022/10/02 02:50:20;;;;;;;9.03;3.53;;;;;;;14.34;100.00;98463.59;4186468;28;21255;-82
2022/10/02 02:52:28;;;;;;;7.93;3.20;;;;;;;14.37;100.00;98476.47;4189241;28;20771;-82
2022/10/02 02:54:35;;;;;;;5.70;2.97;;;;;;;14.37;100.00;98484.34;4185333;28;20672;-83
2022/10/02 02:56:39;;;;;;;9.63;3.90;;;;;;;14.38;100.00;98491.28;4191452;28;20637;-82
2022/10/02 02:58:45;;;;;;;8.00;2.50;;;;;;;14.40;100.00;98481.50;4192074;28;20745;-83
2022/10/02 03:00:50;;;;;;;7.13;3.00;;;;;;;14.40;100.00;98478.88;4188398;28;21298;-83
2022/10/02 03:02:54;;;;;;;8.00;2.90;;;;;;;14.41;100.00;98485.78;4194328;28;21502;-83
2022/10/02 03:04:57;;;;;;;6.93;3.10;;;;;;;14.42;100.00;98482.22;4195080;28;21043;-83
2022/10/02 03:07:03;;;;;;;5.67;3.43;;;;;;;14.44;100.00;98480.31;4194172;28;21199;-83
2022/10/02 03:09:10;;;;;;;8.67;3.07;;;;;;;14.42;100.00;98479.59;4192326;28;21077;-82
2022/10/02 03:11:18;;;;;;;8.30;3.27;;;;;;;14.42;100.00;98483.06;4190655;28;20742;-82
2022/10/02 03:13:30;;;;;;;7.03;3.07;;;;;;;14.42;100.00;98483.06;4197237;28;20722;-83
2022/10/02 03:15:40;;;;;;;5.97;3.60;;;;;;;14.43;100.00;98489.13;4194580;28;20667;-83
2022/10/02 03:17:53;;;;;;;8.83;3.23;;;;;;;14.42;100.00;98490.09;4196345;28;20632;-83
2022/10/02 03:20:01;;;;;;;6.77;3.33;;;;;;;14.41;100.00;98486.63;4190429;28;20633;-83
2022/10/02 03:22:06;;;;;;;8.40;3.30;;;;;;;14.40;100.00;98484.13;4189355;28;20666;-83
2022/10/02 03:24:16;;;;;;;6.30;3.20;;;;;;;14.41;100.00;98481.38;4190531;28;21253;-83
2022/10/02 03:26:22;;;;;;;6.27;3.30;;;;;;;14.43;100.00;98482.06;4193570;28;21229;-83
2022/10/02 03:28:30;;;;;;;6.50;3.20;;;;;;;14.43;100.00;98482.06;4173068;28;20736;-82
2022/10/02 03:30:55;;;;;;;8.77;3.40;;;;;;;14.44;100.00;98480.31;4193562;28;20622;-83
2022/10/02 03:33:00;;;;;;;8.30;3.20;;;;;;;14.40;100.00;98474.47;4193421;28;20696;-82
2022/10/02 03:35:04;;;;;;;13.53;3.17;;;;;;;14.39;100.00;98478.03;4176936;28;21293;-83
2022/10/02 03:37:08;;;;;;;5.70;3.00;;;;;;;14.40;100.00;98476.25;4178582;28;20631;-83
2022/10/02 03:39:10;;;;;;;5.50;3.50;;;;;;;14.41;100.00;98475.28;4196304;28;20997;-83
2022/10/02 03:41:27;;;;;;;8.23;3.30;;;;;;;14.42;100.00;98482.22;4177106;28;20709;-82
2022/10/02 03:43:30;;;;;;;7.70;3.00;;;;;;;14.42;100.00;98474.34;4176455;28;20677;-82
2022/10/02 03:45:33;;;;;;;5.60;2.73;;;;;;;14.42;100.00;98471.72;4193995;28;20657;-83
2022/10/02 03:47:53;;;;;;;5.80;3.70;;;;;;;14.42;100.00;98476.97;4194044;28;20624;-83
2022/10/02 03:49:58;;;;;;;6.07;3.40;;;;;;;14.42;100.00;98482.22;4189339;28;20638;-83
2022/10/02 03:52:01;;;;;;;7.03;2.80;;;;;;;14.41;100.00;98478.75;4207243;28;20734;-82
2022/10/02 03:54:09;;;;;;;5.70;2.70;;;;;;;14.40;100.00;98473.63;4204907;28;20663;-83
2022/10/02 03:56:18;;;;;;;4.67;2.83;;;;;;;14.41;100.00;98480.53;4191039;28;21129;-82
2022/10/02 03:58:21;;;;;;;5.53;2.67;;;;;;;14.39;100.00;98482.47;4192530;28;20629;-83
2022/10/02 04:00:28;;;;;;;7.23;3.20;;;;;;;14.38;100.00;98483.41;4169915;28;20618;-83
2022/10/02 04:02:35;;;;;;;5.40;2.80;;;;;;;14.38;100.00;98483.41;4197488;28;20717;-83
2022/10/02 04:04:43;;;;;;;6.60;2.80;;;;;;;14.40;100.00;98486.75;4193407;28;20629;-83
2022/10/02 04:06:48;;;;;;;6.90;2.93;;;;;;;14.40;100.00;98494.63;4173639;28;20673;-83
2022/10/02 04:08:56;;;;;;;7.10;3.97;;;;;;;14.41;100.00;98496.28;4180329;28;20697;-83
2022/10/02 04:11:04;;;;;;;5.77;2.97;;;;;;;14.41;100.00;98491.03;4191284;28;20636;-83
2022/10/02 04:13:11;;;;;;;6.07;2.60;;;;;;;14.42;100.00;98490.09;4185952;28;20664;-83
2022/10/02 04:15:17;;;;;;;10.00;3.37;;;;;;;14.40;100.00;98495.47;4184590;28;21183;-83
2022/10/02 04:17:23;;;;;;;11.60;3.23;;;;;;;14.43;100.00;98502.25;4196265;28;20634;-83
2022/10/02 04:19:29;;;;;;;13.30;3.40;;;;;;;14.44;100.00;98503.94;4197954;28;20641;-83
2022/10/02 04:21:35;;;;;;;10.00;3.60;;;;;;;14.45;100.00;98495.94;4192747;28;20865;-83
2022/10/02 04:23:43;;;;;;;7.83;3.00;;;;;;;14.47;100.00;98496.66;4183169;28;20733;-83
2022/10/02 04:25:50;;;;;;;7.03;2.60;;;;;;;14.49;100.00;98493.91;4191640;28;20626;-83
2022/10/02 04:27:56;;;;;;;8.93;3.30;;;;;;;14.49;100.00;98499.97;4190139;28;21009;-84
2022/10/02 04:30:05;;;;;;;4.37;2.33;;;;;;;14.52;100.00;98496.28;4178951;28;21303;-84
2022/10/02 04:32:13;;;;;;;7.60;2.70;;;;;;;14.53;100.00;98505.84;4188555;28;20731;-85
2022/10/02 04:34:16;;;;;;;7.77;3.10;;;;;;;14.54;100.00;98489.97;4184279;28;20650;-84
2022/10/02 04:36:30;;;;;;;5.93;3.00;;;;;;;14.56;100.00;98508.22;4195240;28;20653;-84
2022/10/02 04:38:46;;;;;;;11.23;4.10;;;;;;;14.53;100.00;98500.59;4187316;28;20745;-84
2022/10/02 04:41:00;;;;;;;4.87;3.50;;;;;;;14.51;100.00;98498.09;4190437;28;20620;-85
2022/10/02 04:43:17;;;;;;;5.57;3.10;;;;;;;14.52;100.00;98498.91;4180198;28;20748;-85
2022/10/02 04:45:33;;;;;;;5.60;2.70;;;;;;;14.52;100.00;98498.91;4193998;28;20670;-84
2022/10/02 04:48:01;;;;;;;5.03;2.97;;;;;;;14.50;100.00;98491.16;4170002;28;21018;-84
2022/10/02 04:50:16;;;;;;;7.50;3.30;;;;;;;14.50;100.00;98490.34;4186764;28;20648;-84
2022/10/02 04:52:46;;;;;;;5.70;3.00;;;;;;;14.47;100.00;98488.78;4194674;28;20616;-84
2022/10/02 04:55:01;;;;;;;9.70;2.83;;;;;;;14.49;100.00;98489.47;4194351;28;20648;-84
2022/10/02 04:57:20;;;;;;;8.30;2.63;;;;;;;14.50;100.00;98490.34;4192618;28;20620;-84
2022/10/02 04:59:36;;;;;;;9.53;3.30;;;;;;;14.50;100.00;98492.97;4194443;28;20736;-84
2022/10/02 05:01:51;;;;;;;6.83;2.40;;;;;;;14.51;100.00;98491.97;4186708;28;20685;-85
2022/10/02 05:04:15;;;;;;;5.90;3.23;;;;;;;14.51;100.00;98498.09;4195653;28;21201;-84
2022/10/02 05:06:28;;;;;;;7.50;2.80;;;;;;;14.52;100.00;98499.75;4191875;28;20666;-84
2022/10/02 05:08:52;;;;;;;9.43;2.70;;;;;;;14.49;100.00;98493.91;4191564;28;20643;-84
2022/10/02 05:11:08;;;;;;;6.00;2.90;;;;;;;14.48;100.00;98497.47;4184578;28;21260;-84
2022/10/02 05:13:23;;;;;;;9.67;2.93;;;;;;;14.50;100.00;98495.59;4191969;28;20668;-84
2022/10/02 05:15:52;;;;;;;7.00;3.20;;;;;;;14.46;100.00;98502.00;4192891;28;20696;-84
2022/10/02 05:18:03;;;;;;;4.80;2.70;;;;;;;14.44;100.00;98498.69;4191544;28;20615;-84
2022/10/02 05:20:17;;;;;;;5.93;2.20;;;;;;;14.44;100.00;98501.31;4191884;28;20638;-84
2022/10/02 05:22:46;;;;;;;8.50;2.80;;;;;;;14.45;100.00;98505.59;4173483;28;21081;-84
2022/10/02 05:25:04;;;;;;;7.40;3.40;;;;;;;14.44;100.00;98503.94;4193676;28;20617;-84
2022/10/02 05:27:25;;;;;;;5.77;2.77;;;;;;;14.44;100.00;98514.44;4190695;28;21060;-84
2022/10/02 05:29:40;;;;;;;6.83;2.60;;;;;;;14.46;100.00;98507.25;4192449;28;20736;-84
2022/10/02 05:31:54;;;;;;;7.80;2.93;;;;;;;14.46;100.00;98508.09;4192132;28;20650;-84
2022/10/02 05:34:09;;;;;;;6.47;2.60;;;;;;;14.45;100.00;98498.56;4187933;28;20705;-84
2022/10/02 05:36:25;;;;;;;5.27;3.43;;;;;;;14.46;100.00;98502.84;4184526;28;20679;-84
2022/10/02 05:38:45;;;;;;;7.17;2.33;;;;;;;14.45;100.00;98503.81;4188356;28;20623;-84
2022/10/02 05:40:56;;;;;;;7.40;2.33;;;;;;;14.45;100.00;98510.84;4193490;28;20636;-84
2022/10/02 05:43:04;;;;;;;8.13;2.40;;;;;;;14.44;100.00;98511.81;4189758;28;20632;-84
2022/10/02 05:45:19;;;;;;;7.10;2.33;;;;;;;14.47;100.00;98508.94;4174387;28;20626;-85
2022/10/02 05:47:26;;;;;;;9.23;2.50;;;;;;;14.47;100.00;98508.94;4189687;28;20637;-84
2022/10/02 05:49:33;;;;;;;5.40;2.30;;;;;;;14.47;100.00;98511.56;4190368;28;21089;-84
2022/10/02 05:51:42;;;;;;;9.00;3.40;;;;;;;14.48;100.00;98508.81;4172957;28;21064;-84
2022/10/02 05:53:47;;;;;;;9.10;2.60;;;;;;;14.49;100.00;98510.47;4192383;28;20728;-85
2022/10/02 05:55:54;;;;;;;7.30;2.73;;;;;;;14.51;100.00;98510.34;4189530;28;20653;-84
2022/10/02 05:58:03;;;;;;;6.00;2.33;;;;;;;14.52;100.00;98512.03;4188332;28;21729;-85
2022/10/02 06:00:16;;;;;;;6.10;2.37;;;;;;;14.53;100.00;98508.47;4191763;28;21053;-85
2022/10/02 06:02:26;;;;;;;6.83;3.10;;;;;;;14.55;100.00;98517.06;4168907;28;20646;-85
2022/10/02 06:04:34;;;;;;;9.80;2.70;;;;;;;14.56;100.00;98518.75;4191923;28;20727;-85
2022/10/02 06:06:41;;;;;;;7.00;2.73;;;;;;;14.56;100.00;98510.88;4175721;28;20626;-84
2022/10/02 06:08:48;;;;;;;7.10;3.40;;;;;;;14.57;100.00;98512.50;4186760;28;22082;-84
2022/10/02 06:10:53;;;;;;;5.73;2.63;;;;;;;14.58;100.00;98512.38;4190894;28;20701;-85
2022/10/02 06:13:01;;;;;;;6.43;2.80;;;;;;;14.59;100.00;98514.06;4175043;28;20763;-85
2022/10/02 06:15:09;;;;;;;5.90;2.70;;;;;;;14.59;100.00;98516.69;4189524;28;20755;-85
2022/10/02 06:17:16;;;;;;;7.47;2.50;;;;;;;14.58;100.00;98515.00;4184241;28;20649;-84
2022/10/02 06:19:22;;;;;;;10.07;3.03;;;;;;;14.59;100.00;98522.78;4174636;28;20996;-85
2022/10/02 06:21:33;;;;;;;5.87;2.67;;;;;;;14.60;100.00;98534.97;4186576;28;20715;-85
2022/10/02 06:23:38;;;;;;;5.40;2.50;;;;;;;14.60;100.00;98518.38;4178971;28;20622;-85
2022/10/02 06:25:45;;;;;;;4.43;2.40;;;;;;;14.61;100.00;98520.88;4193793;28;20628;-85
2022/10/02 06:27:52;;;;;;;8.90;2.67;;;;;;;14.62;100.00;98519.09;4173180;28;21283;-85
2022/10/02 06:29:58;;;;;;;10.10;2.70;;;;;;;14.64;100.00;98519.78;4190677;28;21215;-85
2022/10/02 06:32:14;;;;;;;8.00;2.50;;;;;;;14.64;100.00;98518.03;4186802;28;20661;-84
2022/10/02 06:34:17;;;;;;;6.50;2.70;;;;;;;14.65;100.00;98516.22;4184240;28;20662;-85
2022/10/02 06:36:47;;;;;;;8.67;2.63;;;;;;;14.66;100.00;98513.47;4192786;28;20622;-85
2022/10/02 06:39:17;;;;;;;8.87;2.47;;;;;;;14.68;100.00;98511.56;4196743;28;20633;-85
2022/10/02 06:41:26;;;;;;;6.83;2.80;;;;;;;14.67;100.00;98509.91;4194333;28;20643;-85
2022/10/02 06:43:44;;;;;;;5.93;2.50;;;;;;;14.66;100.00;98508.22;4189753;28;20668;-85
2022/10/02 06:45:51;;;;;;;5.47;2.63;;;;;;;14.68;100.00;98508.94;4191112;28;20632;-85
2022/10/02 06:48:05;;;;;;;12.37;2.80;;;;;;;14.67;100.00;98504.66;4191402;28;20625;-85
2022/10/02 06:50:32;;;;;;;7.90;3.03;;;;;;;14.68;100.00;98503.69;4192103;28;20648;-85
2022/10/02 06:52:40;;;;;;;10.60;3.40;;;;;;;14.67;100.00;98504.66;4176684;28;20626;-85
2022/10/02 06:54:52;;;;;;;9.43;3.47;;;;;;;14.70;100.00;98504.41;4198757;28;20644;-85
2022/10/02 06:57:10;;;;;;;8.33;3.20;;;;;;;14.72;100.00;98507.75;4189857;28;20717;-85
2022/10/02 06:59:22;;;;;;;7.77;3.10;;;;;;;14.73;100.00;98508.56;4192936;28;20634;-85
2022/10/02 07:01:31;;;;;;;6.43;2.70;;;;;;;14.74;100.00;98516.34;4173113;28;21077;-85
2022/10/02 07:03:48;;;;;;;8.60;2.97;;;;;;;14.75;100.00;98507.50;4194795;28;20620;-85
2022/10/02 07:06:07;;;;;;;10.93;3.57;;;;;;;14.73;100.00;98496.31;4174070;28;20636;-85
2022/10/02 07:08:18;;;;;;;6.83;3.53;;;;;;;14.76;100.00;98489.97;4169946;28;20681;-84
2022/10/02 07:10:30;;;;;;;6.13;3.60;;;;;;;14.78;100.00;98496.78;4191548;28;21206;-85
2022/10/02 07:13:17;;;;;;;9.03;3.70;;;;;;;14.83;100.00;98493.78;4187345;28;20766;-84
2022/10/02 07:15:34;;;;;;;12.80;3.70;;;;;;;14.84;100.00;98491.03;4127358;28;20670;-85
2022/10/02 07:17:48;;;;;;;7.37;3.90;;;;;;;14.84;100.00;98485.78;4173373;28;20627;-85
2022/10/02 07:20:03;;;;;;;8.90;4.47;;;;;;;14.84;100.00;98484.94;4185660;28;20629;-85
2022/10/02 07:22:19;;;;;;;9.93;6.70;;;;;;;14.82;100.00;98478.97;4174587;28;20995;-85
2022/10/02 07:24:52;;;;;;;8.43;5.27;;;;;;;14.82;100.00;98482.41;4191687;28;21067;-85
2022/10/02 07:27:01;;;;;;;8.10;4.80;;;;;;;14.82;100.00;98482.41;4190584;28;20628;-85
2022/10/02 07:29:13;;;;;;;8.57;4.60;;;;;;;14.86;100.00;98483.84;4174235;28;20683;-85
2022/10/02 07:31:21;;;;;;;5.33;2.57;;;;;;;14.90;100.00;98476.56;4191338;28;20623;-85
2022/10/02 07:33:34;;;;;;;6.33;2.73;;;;;;;14.94;100.00;98470.13;4185279;28;20691;-85
2022/10/02 07:35:42;;;;;;;6.73;3.47;;;;;;;14.96;100.00;98470.81;4188300;28;21252;-85
2022/10/02 07:37:52;;;;;;;10.17;6.43;;;;;;;15.00;100.00;98464.38;4191521;28;21027;-85
2022/10/02 07:40:09;;;;;;;6.60;3.07;;;;;;;15.00;100.00;98454.69;4189838;28;21034;-85
2022/10/02 07:42:40;;;;;;;6.30;3.53;;;;;;;14.95;100.00;98462.13;4169628;28;20668;-85
2022/10/02 07:45:19;;;;;;;5.97;3.20;;;;;;;14.94;100.00;98457.00;4191806;28;21007;-85
2022/10/02 07:47:37;;;;;;;10.63;3.53;;;;;;;14.95;100.00;98463.94;4159679;28;20623;-85
2022/10/02 07:49:51;;;;;;;6.40;2.70;;;;;;;14.95;100.00;98464.75;4193592;28;20685;-85
2022/10/02 07:51:59;;;;;;;7.20;5.10;;;;;;;14.96;100.00;98463.81;4193982;28;20625;-85
2022/10/02 07:54:12;;;;;;;6.93;4.53;;;;;;;14.97;100.00;98475.97;4177849;28;20636;-85
2022/10/02 07:56:20;;;;;;;7.10;3.60;;;;;;;14.95;100.00;98472.63;4193844;28;20664;-85
2022/10/02 07:58:30;;;;;;;7.13;4.00;;;;;;;14.94;100.00;98459.63;4174327;28;20673;-84
2022/10/02 08:00:38;;;;;;;5.47;3.67;;;;;;;14.95;100.00;98463.94;4176706;28;20660;-85
2022/10/02 08:02:49;;;;;;;4.87;3.60;;;;;;;14.98;100.00;98456.63;4197500;28;21017;-85
2022/10/02 08:04:55;;;;;;;4.60;3.40;;;;;;;14.98;100.00;98451.38;4193402;28;20739;-85
2022/10/02 08:07:02;;;;;;;6.57;3.30;;;;;;;14.99;100.00;98450.41;4195803;28;21217;-83
2022/10/02 08:09:09;;;;;;;4.13;2.90;;;;;;;15.01;100.00;98447.66;4193377;28;20618;-83
2022/10/02 08:11:15;;;;;;;4.20;2.70;;;;;;;15.05;100.00;98447.31;4188709;28;20754;-83
2022/10/02 08:13:23;;;;;;;4.10;2.40;;;;;;;15.10;100.00;98447.75;4196892;28;20683;-83
2022/10/02 08:15:28;;;;;;;3.43;2.20;;;;;;;15.14;100.00;98450.00;4180897;28;20668;-83
2022/10/02 08:17:37;;;;;;;4.57;2.13;;;;;;;15.16;100.00;98453.34;4187331;28;20639;-83
2022/10/02 08:19:42;;;;;;;4.93;2.13;;;;;;;15.17;100.00;98452.44;4176388;28;20665;-83
2022/10/02 08:21:48;;;;;;;3.53;1.93;;;;;;;15.17;100.00;98457.69;4206552;28;20975;-83
2022/10/02 08:23:56;;;;;;;4.10;1.93;;;;;;;15.16;100.00;98449.91;4188870;28;20632;-83
2022/10/02 08:26:03;;;;;;;3.60;2.20;;;;;;;15.16;100.00;98453.34;4190231;28;20629;-83
2022/10/02 08:28:12;;;;;;;2.20;1.50;;;;;;;15.15;100.00;98453.47;4171841;28;20670;-82
2022/10/02 08:30:15;;;;;;;3.63;1.70;;;;;;;15.15;100.00;98450.84;4170855;28;21078;-85
2022/10/02 08:32:18;;;;;;;2.67;1.80;;;;;;;15.16;100.00;98442.00;4177178;28;21243;-85
2022/10/02 08:34:23;;;;;;;2.00;1.63;;;;;;;15.17;100.00;98447.19;4173273;28;20619;-85
2022/10/02 08:36:52;;;;;;;2.17;1.50;;;;;;;15.17;100.00;98447.19;4177795;28;20744;-84
2022/10/02 08:39:02;;;;;;;4.20;1.90;;;;;;;15.17;100.00;98438.47;4175057;28;21368;-85
2022/10/02 08:41:32;;;;;;;2.73;1.60;;;;;;;15.18;100.00;98417.31;4193916;28;20630;-84
2022/10/02 08:44:02;;;;;;;1.90;1.30;;;;;;;15.21;100.00;98424.09;4206118;28;20686;-87
2022/10/02 08:46:23;;;;;;;2.77;1.60;;;;;;;15.20;100.00;98423.28;4179912;28;21173;-84
2022/10/02 08:48:53;;;;;;;7.97;1.90;;;;;;;15.20;100.00;98415.41;4175520;28;20685;-85
2022/10/02 08:51:39;;;;;;;5.70;1.93;;;;;;;15.21;100.00;98408.34;4194077;28;20631;-86
2022/10/02 08:54:08;;;;;;;2.47;1.80;;;;;;;15.22;100.00;98412.63;4125057;28;20653;-85
2022/10/02 08:56:24;;;;;;;3.17;1.70;;;;;;;15.20;100.00;98406.69;4191990;28;20658;-85
2022/10/02 08:58:50;;;;;;;4.10;1.90;;;;;;;15.18;100.00;98398.94;4195018;28;20690;-85
2022/10/02 09:01:02;;;;;;;2.17;1.67;;;;;;;15.18;100.00;98400.69;4189559;28;21234;-85
2022/10/02 09:03:32;;;;;;;3.63;2.00;;;;;;;15.18;100.00;98411.22;4191892;28;20713;-85
2022/10/02 09:06:10;;;;;;;4.00;2.07;;;;;;;15.18;100.00;98405.94;4191620;28;20668;-84
2022/10/02 09:08:44;;;;;;;4.07;2.90;;;;;;;15.12;100.00;98416.94;4187231;28;20641;-84
2022/10/02 09:11:23;;;;;;;4.50;3.37;;;;;;;15.04;100.00;98418.53;4174827;28;21013;-83
2022/10/02 09:13:46;;;;;;;7.87;6.90;;;;;;;14.95;100.00;98430.59;4197365;28;21283;-84
2022/10/02 09:16:01;;;;;;;7.00;4.73;;;;;;;14.89;100.00;98430.25;4192490;28;20695;-83
2022/10/02 09:18:16;;;;;;;4.80;4.40;;;;;;;14.83;100.00;98434.19;4191233;28;21274;-83
2022/10/02 09:20:56;;;;;;;5.23;4.03;;;;;;;14.78;100.00;98453.94;4178300;28;20632;-84
2022/10/02 09:23:28;;;;;;;5.87;3.33;;;;;;;14.79;100.00;98450.31;4165061;28;21413;-82
2022/10/02 09:25:36;;;;;;;6.40;5.20;;;;;;;14.80;100.00;98444.94;4192740;28;20641;-83
2022/10/02 09:28:18;;;;;;;18.90;17.07;;;;;;;14.86;100.00;98439.22;4170644;28;20662;-83
2022/10/02 09:30:46;;;;;;;5.00;4.30;;;;;;;14.93;100.00;98429.91;4194054;28;20702;-83
2022/10/02 09:33:19;;;;;;;3.03;2.30;;;;;;;14.99;100.00;98418.03;4193247;28;20624;-83
2022/10/02 09:35:49;;;;;;;4.43;2.87;;;;;;;14.99;100.00;98416.28;4191257;28;20705;-83
2022/10/02 09:38:28;;;;;;;5.10;4.03;;;;;;;15.06;100.00;98421.84;4191078;28;20747;-83
2022/10/02 09:41:09;;;;;;;3.70;2.90;;;;;;;15.11;100.00;98425.78;4189615;28;21008;-83
2022/10/02 09:43:38;;;;;;;2.80;2.40;;;;;;;15.17;100.00;98425.31;4175942;28;20682;-83
2022/10/02 09:46:20;;;;;;;3.20;2.43;;;;;;;15.23;100.00;98420.41;4191559;28;22039;-83
2022/10/02 09:49:10;;;;;;;2.30;1.80;;;;;;;15.25;100.00;98422.91;4192032;28;21043;-83
2022/10/02 09:51:45;;;;;;;2.43;1.53;;;;;;;15.28;100.00;98427.91;4164836;28;20741;-83
2022/10/02 09:54:32;;;;;;;2.53;1.67;;;;;;;15.31;100.00;98427.66;4105183;28;20716;-84
2022/10/02 09:57:19;;;;;;;2.20;1.80;;;;;;;15.37;100.00;98414.00;4188842;28;20649;-84
2022/10/02 09:59:47;;;;;;;2.97;2.00;;;;;;;15.46;100.00;98408.00;4192305;28;20627;-84
2022/10/02 10:02:29;;;;;;;5.60;2.77;;;;;;;15.55;100.00;98404.63;4188856;28;20621;-85
2022/10/02 10:04:55;;;;;;;4.90;3.30;;;;;;;15.61;100.00;98399.66;4191431;28;21021;-85
2022/10/02 10:07:29;;;;;;;4.67;3.73;;;;;;;15.61;100.00;98399.66;4192272;28;21001;-85
2022/10/02 10:09:53;;;;;;;3.77;2.47;;;;;;;15.60;100.00;98406.69;4185200;28;20741;-85
2022/10/02 10:12:31;;;;;;;3.40;2.37;;;;;;;15.60;100.00;98417.22;4189502;28;20706;-85
2022/10/02 10:15:04;;;;;;;3.20;1.50;;;;;;;15.58;100.00;98426.22;4187273;28;20625;-85
2022/10/02 10:17:44;;;;;;;1.90;1.40;;;;;;;15.56;100.00;98439.50;4136662;28;20699;-85
2022/10/02 10:20:13;;;;;;;2.07;1.40;;;;;;;15.58;100.00;98436.75;4175684;28;21205;-85